Weather observations for the past three days for
Marshalltown, Marshalltown Municipal Airport
Imperial (Metric)
Date Time (cdt) Wind (mph) Vis. (mi.) Weather Sky Cond. Temperature (ºF) Relative Humidity Wind Chill (°F) Heat Index (°F) Pressure Precipitation (in)
Air Dwpt 6 hour altimeter (in) sea level (mb) 1 hr 3 hr 6 hr
Max. Min.
10 09:53 N 5 10.00 Fair CLR 59 28.9 32% 30.14 1020.7
10 08:53 Vrbl 3 10.00 Fair CLR 55 28 36% 30.14 1020.7
10 07:53 NW 6 10.00 Fair CLR 46.9 30 52% 45 30.12 1020.2
10 06:53 W 3 10.00 Fair CLR 37 27 46 33.1 67% 30.11 1020.0
10 05:53 NW 8 10.00 Fair CLR 36 25 64% 30 30.09 1019.2
10 04:53 NW 7 10.00 Fair CLR 36 25 64% 31 30.08 1018.9
10 03:53 NW 8 10.00 Fair CLR 37 24.1 59% 32 30.07 1018.4
10 02:53 NW 7 10.00 Fair CLR 39.9 24.1 53% 36 30.05 1017.5
10 01:53 N 10 10.00 Fair CLR 45 24.1 44% 40 30.02 1016.8
10 00:53 N 12 10.00 Fair CLR 46 24.1 64 42.1 42% 41 30 1016.0
09 23:53 NW 7 10.00 Fair CLR 46 25 44% 43 29.98 1015.3
09 22:53 N 9 10.00 Fair CLR 46.9 24.1 41% 43 29.96 1014.6
09 21:53 NW 10 10.00 Fair CLR 51.1 26.1 38% 29.94 1013.6
09 20:53 NW 8 10.00 Fair CLR 52 26.1 37% 29.9 1012.5
09 19:53 N 13 10.00 Fair CLR 60.1 26.1 27% 29.86 1011.1
09 18:53 N 17 10.00 Fair CLR 64 28 70 62.1 26% 29.83 1010.3
09 17:53 NW 15 G 26 10.00 Fair CLR 66 30.9 27% 29.81 1009.6
09 16:53 N 22 G 29 10.00 Fair and Breezy CLR 66.9 33.1 29% 29.8 1009.0
09 15:53 NW 15 G 26 10.00 A Few Clouds FEW100 69.1 37 31% 29.78 1008.5
09 14:53 NW 13 10.00 Fair CLR 66 43 43% 29.78 1008.3
09 13:53 NW 20 G 29 10.00 Mostly Cloudy BKN100 63 44.1 50% 29.78 1008.4
09 12:53 NW 16 G 32 10.00 Mostly Cloudy BKN110 64.9 42.1 68 46 43% 29.76 1007.5
09 11:53 NW 17 G 30 10.00 Partly Cloudy SCT120 66.9 39.9 37% 29.76 1007.3
09 10:53 NW 17 10.00 Mostly Cloudy BKN110 64.9 37 36% 29.75 1006.9
09 09:53 NW 15 G 26 10.00 A Few Clouds FEW120 64.9 35.1 33% 29.74 1006.7
09 08:53 NW 16 G 28 10.00 Fair CLR 61 35.1 38% 29.73 1006.6
09 07:53 SW 7 10.00 Fair CLR 55 37 51% 29.7 1005.3
09 06:53 W 5 10.00 Fair CLR 45 36 53.1 42.1 71% 43 29.68 1005.0
09 05:53 S 5 10.00 Fair CLR 46.9 35.1 63% 45 29.66 1004.3
09 04:53 W 7 10.00 Fair CLR 45 35.1 68% 42 29.68 1004.7
09 03:53 W 6 10.00 Fair CLR 45 37 74% 42 29.68 1004.8
09 02:53 SW 6 10.00 Fair CLR 51.1 37 59% 29.66 1004.2
09 01:53 SW 6 10.00 Fair CLR 52 41 66% 29.67 1004.5
09 00:53 SW 8 10.00 Fair CLR 53.1 42.1 71.1 53.1 66% 29.67 1004.4
08 23:53 SW 13 10.00 Fair CLR 59 45 60% 29.67 1004.2
08 22:53 SW 13 10.00 A Few Clouds FEW120 62.1 42.1 48% 29.66 1003.9
08 21:53 S 10 10.00 Overcast OVC110 66 39 37% 29.65 1003.7
08 20:53 SW 9 10.00 Overcast OVC110 66.9 33.1 29% 29.65 1003.9
08 19:53 SW 9 10.00 A Few Clouds FEW120 66.9 32 27% 29.63 1003.1
08 18:53 W 14 10.00 A Few Clouds FEW110 71.1 30 73.9 69.1 22% 29.64 1003.5
08 17:53 SW 6 10.00 A Few Clouds FEW120 72 30.9 22% 29.65 1004.0
08 16:53 SW 8 G 17 10.00 A Few Clouds FEW120 71.1 30.9 23% 29.66 1004.5
08 15:53 W 14 G 25 10.00 Fair CLR 73 30.9 21% 29.68 1005.1
08 14:53 W 12 10.00 Fair CLR 72 32 23% 29.71 1006.1
08 13:53 SW 12 10.00 Fair CLR 70 30.9 23% 29.74 1007.0
08 12:53 Calm 10.00 Fair CLR 69.1 34 70 43 27% 29.75 1007.4
08 11:53 SW 7 10.00 Fair CLR 69.1 35.1 29% 29.78 1008.2
08 10:53 Vrbl 5 10.00 Fair CLR 66.9 33.1 29% 29.8 1008.9
08 09:53 S 5 10.00 Fair CLR 62.1 39.9 44% 29.81 1009.2
08 08:53 S 3 10.00 Fair CLR 55.9 37 49% 29.82 1009.6
08 07:53 SE 5 10.00 Fair CLR 50 30.9 48% 49 29.81 1009.6
08 06:53 SE 3 10.00 Fair CLR 43 26.1 46 37.9 51% 29.81 1009.6
08 05:53 S 6 10.00 Fair CLR 42.1 25 51% 39 29.81 1009.6
08 04:53 E 5 10.00 Fair CLR 39.9 26.1 58% 37 29.81 1009.7
08 03:53 E 7 10.00 Fair CLR 41 25 53% 37 29.81 1009.6
08 02:53 E 8 10.00 Fair CLR 42.1 25 51% 38 29.83 1010.1
08 01:53 E 7 10.00 Fair CLR 43 25 49% 39 29.83 1010.3
08 00:53 E 8 10.00 Fair CLR 46 25 64.9 45 44% 42 29.85 1010.7
07 23:53 NE 7 10.00 Fair CLR 46.9 26.1 44% 44 29.85 1010.8
07 22:53 NE 7 10.00 Fair CLR 48 25 41% 45 29.85 1010.9
07 21:53 NE 6 10.00 Fair CLR 53.1 25 34% 29.84 1010.5
07 20:53 E 3 10.00 A Few Clouds FEW095 57.9 27 31% 29.81 1009.6
07 19:53 NW 6 10.00 Mostly Cloudy BKN095 61 30.9 32% 29.79 1008.9
07 18:53 W 8 10.00 Overcast OVC090 64 33.1 66 59 32% 29.79 1008.8
07 17:53 Vrbl 7 G 17 10.00 Mostly Cloudy BKN095 64 33.1 32% 29.79 1009.1
07 16:53 W 8 10.00 Mostly Cloudy BKN090 66 35.1 32% 29.8 1009.3
07 15:53 W 9 G 18 10.00 Partly Cloudy SCT100 62.1 34 35% 29.82 1010.0
07 14:53 SW 12 G 22 10.00 Mostly Cloudy BKN100 62.1 39 43% 29.84 1010.6
07 13:53 SW 8 G 24 10.00 Mostly Cloudy SCT070 BKN100 62.1 37 40% 29.84 1010.8
07 12:53 W 12 G 25 10.00 Partly Cloudy SCT100 61 34 62.1 41 36% 29.86 1011.3
07 11:53 W 12 G 22 10.00 A Few Clouds FEW110 59 36 42% 29.87 1011.7
07 10:53 SW 16 10.00 Fair CLR 57 36 45% 29.88 1012.0
Date Time (cdt) Wind (mph) Vis. (mi.) Weather Sky Cond. Air Dwpt Max. Min. Relative Humidity Wind Chill (°F) Heat Index (°F) altimeter (in) sea level (mb) 1 hr 3 hr 6 hr
6 hour
Temperature (ºF) Pressure Precipitation (in)